Time;durP1;ratioP1;P1;durP2;ratioP2;P2;SDS_P1;SDS_P2;PMS_P1;PMS_P2;Temp;Humidity;BMP_temperature;BMP_pressure;BME280_temperature;BME280_humidity;BME280_pressure;Samples;Min_cycle;Max_cycle;Signal;HPM_P1;HPM_P2
2023/09/14 00:00:14;;;;;;;3.65;2.13;;;;;;;;;;5060270;28;20029;-87
2023/09/14 00:02:40;;;;;;;2.83;2.20;;;;;;;;;;5061311;28;20443;-83
2023/09/14 00:05:06;;;;;;;3.10;2.20;;;;;;;;;;5072042;28;20044;-83
2023/09/14 00:07:32;;;;;;;2.97;2.00;;;;;;;;;;5065378;28;20032;-84
2023/09/14 00:09:58;;;;;;;2.95;2.15;;;;;;;;;;5061580;28;20047;-83
2023/09/14 00:12:24;;;;;;;2.00;1.77;;;;;;;;;;5067933;28;20044;-84
2023/09/14 00:14:50;;;;;;;2.78;2.00;;;;;;;;;;5063443;28;20075;-83
2023/09/14 00:17:15;;;;;;;2.97;1.70;;;;;;;;;;5065379;28;20037;-83
2023/09/14 00:19:41;;;;;;;2.67;1.90;;;;;;;;;;5067208;28;20032;-83
2023/09/14 00:22:06;;;;;;;3.58;2.00;;;;;;;;;;5064860;28;20434;-84
2023/09/14 00:24:32;;;;;;;3.38;1.88;;;;;;;;;;5065087;28;20048;-83
2023/09/14 00:26:57;;;;;;;2.10;1.75;;;;;;;;;;5085247;28;20119;-83
2023/09/14 00:29:23;;;;;;;2.50;1.95;;;;;;;;;;5090641;28;20037;-83
2023/09/14 00:31:48;;;;;;;4.00;2.08;;;;;;;;;;5086665;28;20103;-83
2023/09/14 00:34:14;;;;;;;3.00;1.95;;;;;;;;;;5067241;28;20032;-83
2023/09/14 00:36:39;;;;;;;2.80;2.00;;;;;;;;;;5064795;28;20063;-84
2023/09/14 00:39:08;;;;;;;3.22;1.90;;;;;;;;;;5078662;28;20062;-83
2023/09/14 00:41:34;;;;;;;5.47;1.98;;;;;;;;;;5061140;28;20040;-83
2023/09/14 00:43:59;;;;;;;2.78;1.95;;;;;;;;;;5058476;28;20401;-83
2023/09/14 00:46:24;;;;;;;2.20;1.75;;;;;;;;;;5064066;28;20086;-83
2023/09/14 00:48:50;;;;;;;2.17;1.60;;;;;;;;;;5071608;28;20377;-82
2023/09/14 00:51:15;;;;;;;3.22;1.77;;;;;;;;;;5061185;28;20463;-83
2023/09/14 00:53:41;;;;;;;2.65;1.77;;;;;;;;;;5056159;28;20017;-83
2023/09/14 00:56:07;;;;;;;2.67;1.90;;;;;;;;;;5061183;28;20035;-83
2023/09/14 00:58:32;;;;;;;3.13;1.90;;;;;;;;;;5062368;28;20029;-83
2023/09/14 01:00:59;;;;;;;3.63;1.80;;;;;;;;;;5053367;28;20471;-83
2023/09/14 01:03:26;;;;;;;3.92;2.00;;;;;;;;;;5056960;28;20052;-83
2023/09/14 01:05:51;;;;;;;3.05;1.80;;;;;;;;;;5086274;28;20037;-83
2023/09/14 01:08:18;;;;;;;2.60;1.77;;;;;;;;;;5066462;28;20020;-83
2023/09/14 01:10:43;;;;;;;1.83;1.60;;;;;;;;;;5060755;28;20033;-83
2023/09/14 01:13:30;;;;;;;2.40;1.70;;;;;;;;;;5054874;28;20029;-83
2023/09/14 01:16:10;;;;;;;4.32;2.00;;;;;;;;;;5076370;28;20372;-82
2023/09/14 01:18:43;;;;;;;2.30;1.90;;;;;;;;;;5058981;28;20029;-83
2023/09/14 01:21:39;;;;;;;5.80;2.00;;;;;;;;;;5055466;28;20045;-82
2023/09/14 01:24:11;;;;;;;3.25;1.90;;;;;;;;;;5063302;28;20465;-82
2023/09/14 01:26:37;;;;;;;4.28;2.30;;;;;;;;;;5083811;28;20047;-83
2023/09/14 01:29:04;;;;;;;2.45;1.90;;;;;;;;;;5054187;28;20115;-83
2023/09/14 01:31:31;;;;;;;3.63;2.30;;;;;;;;;;5074992;28;20501;-83
2023/09/14 01:33:57;;;;;;;2.63;2.03;;;;;;;;;;5058102;28;20388;-83
2023/09/14 01:36:25;;;;;;;3.20;2.10;;;;;;;;;;5075212;28;20124;-83
2023/09/14 01:38:53;;;;;;;2.88;1.98;;;;;;;;;;5073650;28;20037;-83
2023/09/14 01:41:19;;;;;;;3.70;2.22;;;;;;;;;;5056385;28;20668;-83
2023/09/14 01:43:47;;;;;;;3.08;2.20;;;;;;;;;;5068432;28;20078;-82
2023/09/14 01:46:14;;;;;;;4.85;2.35;;;;;;;;;;5071261;28;20029;-83
2023/09/14 01:48:39;;;;;;;2.80;2.20;;;;;;;;;;5063890;28;20021;-83
2023/09/14 01:51:05;;;;;;;3.85;2.20;;;;;;;;;;5073333;28;20470;-83
2023/09/14 01:53:30;;;;;;;2.00;1.80;;;;;;;;;;5055250;28;20114;-83
2023/09/14 01:55:56;;;;;;;4.93;2.00;;;;;;;;;;5069365;28;20029;-83
2023/09/14 01:58:22;;;;;;;4.32;1.88;;;;;;;;;;5062881;28;20028;-83
2023/09/14 02:00:48;;;;;;;2.65;1.90;;;;;;;;;;5054721;28;20048;-83
2023/09/14 02:03:13;;;;;;;4.22;2.10;;;;;;;;;;5071589;28;20029;-83
2023/09/14 02:05:40;;;;;;;3.40;1.95;;;;;;;;;;5084495;28;20059;-83
2023/09/14 02:08:06;;;;;;;3.92;2.28;;;;;;;;;;5064158;28;20021;-83
2023/09/14 02:10:32;;;;;;;2.83;2.20;;;;;;;;;;5070531;28;20489;-83
2023/09/14 02:12:57;;;;;;;3.50;1.98;;;;;;;;;;5055950;28;20037;-83
2023/09/14 02:15:23;;;;;;;2.28;2.08;;;;;;;;;;5075840;28;20035;-83
2023/09/14 02:17:48;;;;;;;2.95;2.10;;;;;;;;;;5058663;28;20029;-84
2023/09/14 02:20:14;;;;;;;2.88;2.30;;;;;;;;;;5055520;28;20444;-83
2023/09/14 02:22:40;;;;;;;4.28;1.88;;;;;;;;;;5053511;28;20029;-82
2023/09/14 02:25:06;;;;;;;3.85;2.00;;;;;;;;;;5068682;28;20482;-83
2023/09/14 02:27:35;;;;;;;3.90;2.20;;;;;;;;;;5066209;28;20032;-83
2023/09/14 02:30:00;;;;;;;2.85;2.20;;;;;;;;;;5058419;28;20028;-83
2023/09/14 02:32:26;;;;;;;2.78;2.10;;;;;;;;;;5062581;28;20150;-83
2023/09/14 02:34:51;;;;;;;2.28;1.90;;;;;;;;;;5076305;28;20028;-83
2023/09/14 02:37:17;;;;;;;6.60;1.90;;;;;;;;;;5074316;28;20128;-83
2023/09/14 02:39:42;;;;;;;4.38;2.10;;;;;;;;;;5075565;28;20524;-82
2023/09/14 02:42:07;;;;;;;3.45;2.10;;;;;;;;;;5073080;28;20045;-83
2023/09/14 02:44:36;;;;;;;2.78;1.80;;;;;;;;;;5075676;28;20029;-83
2023/09/14 02:47:02;;;;;;;2.58;1.88;;;;;;;;;;5074509;28;20029;-83
2023/09/14 02:49:28;;;;;;;3.63;1.80;;;;;;;;;;5062138;28;20043;-83
2023/09/14 02:51:53;;;;;;;2.25;1.63;;;;;;;;;;5058905;28;20029;-83
2023/09/14 02:54:19;;;;;;;2.40;1.50;;;;;;;;;;5081402;28;20086;-83
2023/09/14 02:56:44;;;;;;;2.47;1.83;;;;;;;;;;5067780;28;20071;-83
2023/09/14 02:59:10;;;;;;;2.13;1.65;;;;;;;;;;5077395;28;20432;-83
2023/09/14 03:01:36;;;;;;;2.40;1.70;;;;;;;;;;5070665;28;20425;-82
2023/09/14 03:04:01;;;;;;;4.00;1.90;;;;;;;;;;5057432;28;20029;-83
2023/09/14 03:06:27;;;;;;;2.95;1.80;;;;;;;;;;5060393;28;20029;-83
2023/09/14 03:08:52;;;;;;;3.65;1.70;;;;;;;;;;5058903;28;20025;-83
2023/09/14 03:11:18;;;;;;;2.15;1.67;;;;;;;;;;5041983;28;20142;-82
2023/09/14 03:13:44;;;;;;;3.30;1.90;;;;;;;;;;5067951;28;20033;-83
2023/09/14 03:16:09;;;;;;;2.83;1.70;;;;;;;;;;5069466;28;20048;-83
2023/09/14 03:18:35;;;;;;;2.05;1.60;;;;;;;;;;5073065;28;20028;-83
2023/09/14 03:21:01;;;;;;;2.25;1.70;;;;;;;;;;5057713;28;20558;-83
2023/09/14 03:23:27;;;;;;;1.90;1.52;;;;;;;;;;5069069;28;20017;-83
2023/09/14 03:25:55;;;;;;;2.58;1.60;;;;;;;;;;5072399;28;20036;-83
2023/09/14 03:28:20;;;;;;;3.28;1.80;;;;;;;;;;5074420;28;20036;-83
2023/09/14 03:30:47;;;;;;;4.95;1.80;;;;;;;;;;5067891;28;20028;-83
2023/09/14 03:33:12;;;;;;;2.92;1.90;;;;;;;;;;5070935;28;20428;-81
2023/09/14 03:35:38;;;;;;;1.95;1.55;;;;;;;;;;5068087;28;20032;-83
2023/09/14 03:38:04;;;;;;;2.85;1.60;;;;;;;;;;5054872;28;20029;-83
2023/09/14 03:40:30;;;;;;;2.00;1.60;;;;;;;;;;5074692;28;20040;-83
2023/09/14 03:42:55;;;;;;;4.90;1.70;;;;;;;;;;5075270;28;20059;-83
2023/09/14 03:45:21;;;;;;;4.03;1.73;;;;;;;;;;5071631;28;20032;-83
2023/09/14 03:47:49;;;;;;;4.93;1.88;;;;;;;;;;5056095;28;20033;-83
2023/09/14 03:50:14;;;;;;;2.83;1.80;;;;;;;;;;5059215;28;20036;-83
2023/09/14 03:52:40;;;;;;;1.95;1.70;;;;;;;;;;5065563;28;20394;-83
2023/09/14 03:55:06;;;;;;;2.35;1.73;;;;;;;;;;5072449;28;20381;-83
2023/09/14 03:57:31;;;;;;;2.38;1.60;;;;;;;;;;5062604;28;20043;-84
2023/09/14 03:59:59;;;;;;;1.92;1.58;;;;;;;;;;5075916;28;20032;-83
2023/09/14 04:02:25;;;;;;;2.17;1.65;;;;;;;;;;5071309;28;20029;-83
2023/09/14 04:04:50;;;;;;;2.50;1.70;;;;;;;;;;5053399;28;20029;-83
2023/09/14 04:07:16;;;;;;;4.22;1.98;;;;;;;;;;5069685;28;20028;-82
2023/09/14 04:09:42;;;;;;;2.90;1.90;;;;;;;;;;5061103;28;20024;-83
2023/09/14 04:12:08;;;;;;;2.50;1.85;;;;;;;;;;5069126;28;20024;-83
2023/09/14 04:14:34;;;;;;;2.33;1.60;;;;;;;;;;5074114;28;20028;-83
2023/09/14 04:17:01;;;;;;;3.97;1.92;;;;;;;;;;5065748;28;20032;-83
2023/09/14 04:19:28;;;;;;;5.45;2.10;;;;;;;;;;5081251;28;20025;-83
2023/09/14 04:21:54;;;;;;;3.33;2.10;;;;;;;;;;5072014;28;20104;-83
2023/09/14 04:24:20;;;;;;;3.58;2.00;;;;;;;;;;5074388;28;20040;-83
2023/09/14 04:26:47;;;;;;;3.47;1.75;;;;;;;;;;5074770;28;20485;-83
2023/09/14 04:29:13;;;;;;;2.83;2.00;;;;;;;;;;5061010;28;20051;-83
2023/09/14 04:31:40;;;;;;;3.25;1.92;;;;;;;;;;5082404;28;20021;-83
2023/09/14 04:34:06;;;;;;;2.80;2.05;;;;;;;;;;5074616;28;20032;-83
2023/09/14 04:36:32;;;;;;;2.42;1.98;;;;;;;;;;5074701;28;20085;-83
2023/09/14 04:39:00;;;;;;;4.22;2.50;;;;;;;;;;5079428;28;20080;-83
2023/09/14 04:41:26;;;;;;;2.58;2.08;;;;;;;;;;5059885;28;20082;-83
2023/09/14 04:43:52;;;;;;;3.45;2.00;;;;;;;;;;5076803;28;20116;-83
2023/09/14 04:46:17;;;;;;;2.72;2.10;;;;;;;;;;5074388;28;20106;-83
2023/09/14 04:48:43;;;;;;;3.70;2.10;;;;;;;;;;5072166;28;20111;-83
2023/09/14 04:51:11;;;;;;;4.25;2.10;;;;;;;;;;5075903;28;20029;-84
2023/09/14 04:53:37;;;;;;;3.67;2.20;;;;;;;;;;5072527;28;20086;-84
2023/09/14 04:56:03;;;;;;;4.22;2.00;;;;;;;;;;5073532;28;20389;-83
2023/09/14 04:58:29;;;;;;;2.28;1.80;;;;;;;;;;5079688;28;20025;-83
2023/09/14 05:00:55;;;;;;;3.50;2.17;;;;;;;;;;5069372;28;20363;-84
2023/09/14 05:03:21;;;;;;;2.40;2.20;;;;;;;;;;5064744;28;20037;-84
2023/09/14 05:05:52;;;;;;;3.15;2.35;;;;;;;;;;5074650;28;20046;-83
2023/09/14 05:08:18;;;;;;;4.97;2.40;;;;;;;;;;5076980;28;20115;-84
2023/09/14 05:10:44;;;;;;;3.95;2.60;;;;;;;;;;5063304;28;20048;-83
2023/09/14 05:13:09;;;;;;;6.90;2.40;;;;;;;;;;5058782;28;20140;-83
2023/09/14 05:15:35;;;;;;;2.80;2.30;;;;;;;;;;5068486;28;20024;-83
2023/09/14 05:18:00;;;;;;;3.75;2.22;;;;;;;;;;5080191;28;20887;-84
2023/09/14 05:20:26;;;;;;;4.20;2.10;;;;;;;;;;5060076;28;20039;-83
2023/09/14 05:22:51;;;;;;;3.72;2.78;;;;;;;;;;5061518;28;20040;-84
2023/09/14 05:25:17;;;;;;;4.35;2.95;;;;;;;;;;5059533;28;20056;-84
2023/09/14 05:27:42;;;;;;;3.53;2.78;;;;;;;;;;5056832;28;20036;-84
2023/09/14 05:30:09;;;;;;;3.33;2.53;;;;;;;;;;5055708;28;20050;-84
2023/09/14 05:32:36;;;;;;;5.18;2.80;;;;;;;;;;5069187;28;20078;-84
2023/09/14 05:35:02;;;;;;;4.97;2.70;;;;;;;;;;5083463;28;20040;-84
2023/09/14 05:37:28;;;;;;;6.43;3.45;;;;;;;;;;5078484;28;20029;-84
2023/09/14 05:39:54;;;;;;;6.80;3.03;;;;;;;;;;5067361;28;20027;-83
2023/09/14 05:42:21;;;;;;;3.30;2.60;;;;;;;;;;5060837;28;20406;-83
2023/09/14 05:44:48;;;;;;;4.88;2.60;;;;;;;;;;5070681;28;20067;-83
2023/09/14 05:47:14;;;;;;;3.75;2.92;;;;;;;;;;5065221;28;20036;-83
2023/09/14 05:49:41;;;;;;;4.40;3.35;;;;;;;;;;5053345;28;20079;-82
2023/09/14 05:52:08;;;;;;;6.82;4.50;;;;;;;;;;5067738;28;20021;-84
2023/09/14 05:54:36;;;;;;;7.43;4.97;;;;;;;;;;5081263;28;20024;-84
2023/09/14 05:57:02;;;;;;;6.03;4.85;;;;;;;;;;5075643;28;20040;-84
2023/09/14 05:59:29;;;;;;;7.13;4.63;;;;;;;;;;5062558;28;20112;-83
2023/09/14 06:01:55;;;;;;;7.53;4.65;;;;;;;;;;5062185;28;20115;-83
2023/09/14 06:04:20;;;;;;;5.47;3.97;;;;;;;;;;5059645;28;20052;-83
2023/09/14 06:06:46;;;;;;;6.70;5.00;;;;;;;;;;5063146;28;20029;-83
2023/09/14 06:09:12;;;;;;;7.93;4.07;;;;;;;;;;5054907;28;20029;-83
2023/09/14 06:11:38;;;;;;;6.05;3.78;;;;;;;;;;5058763;28;20427;-84
2023/09/14 06:14:03;;;;;;;5.50;3.67;;;;;;;;;;5065621;28;20040;-83
2023/09/14 06:16:29;;;;;;;5.90;3.60;;;;;;;;;;5076514;28;20139;-83
2023/09/14 06:18:54;;;;;;;5.05;3.67;;;;;;;;;;5055306;28;20106;-83
2023/09/14 06:21:20;;;;;;;7.60;4.00;;;;;;;;;;5059897;28;20072;-83
2023/09/14 06:23:46;;;;;;;7.07;4.57;;;;;;;;;;5072824;28;20047;-83
2023/09/14 06:26:11;;;;;;;8.05;4.70;;;;;;;;;;5055250;28;20028;-83
2023/09/14 06:28:37;;;;;;;8.82;5.88;;;;;;;;;;5053802;28;20033;-83
2023/09/14 06:31:02;;;;;;;9.13;5.32;;;;;;;;;;5063881;28;20111;-84
2023/09/14 06:33:28;;;;;;;7.53;5.80;;;;;;;;;;5058324;28;20025;-84
2023/09/14 06:35:54;;;;;;;11.20;5.90;;;;;;;;;;5060284;28;20036;-82
2023/09/14 06:38:19;;;;;;;7.53;5.00;;;;;;;;;;5064329;28;20432;-83
2023/09/14 06:40:45;;;;;;;8.43;5.30;;;;;;;;;;5061697;28;20031;-84
2023/09/14 06:43:10;;;;;;;7.28;5.13;;;;;;;;;;5074959;28;20040;-83
2023/09/14 06:45:36;;;;;;;7.10;4.72;;;;;;;;;;5059488;28;20041;-84
2023/09/14 06:48:01;;;;;;;8.85;5.75;;;;;;;;;;5053473;28;20048;-84
2023/09/14 06:50:27;;;;;;;7.22;5.43;;;;;;;;;;5060742;28;20064;-83
2023/09/14 06:52:53;;;;;;;12.23;6.18;;;;;;;;;;5062805;28;20120;-82
2023/09/14 06:55:20;;;;;;;10.98;6.13;;;;;;;;;;5063807;28;20087;-84
2023/09/14 06:57:45;;;;;;;9.63;6.10;;;;;;;;;;5058486;28;20128;-83
2023/09/14 07:00:15;;;;;;;9.45;6.78;;;;;;;;;;5072409;28;20060;-83
2023/09/14 07:02:41;;;;;;;10.05;7.45;;;;;;;;;;5061260;28;20149;-82
2023/09/14 07:05:07;;;;;;;10.93;7.43;;;;;;;;;;5058196;28;20025;-85
2023/09/14 07:07:33;;;;;;;10.02;6.90;;;;;;;;;;5055261;28;20028;-84
2023/09/14 07:09:58;;;;;;;12.15;8.68;;;;;;;;;;5056608;28;20055;-83
2023/09/14 07:12:23;;;;;;;11.43;8.57;;;;;;;;;;5052894;28;20029;-84
2023/09/14 07:14:49;;;;;;;15.93;9.25;;;;;;;;;;5063220;28;20068;-83
2023/09/14 07:17:16;;;;;;;14.35;8.35;;;;;;;;;;5059953;28;20035;-81
2023/09/14 07:19:42;;;;;;;12.20;8.95;;;;;;;;;;5054113;28;20186;-81
2023/09/14 07:22:07;;;;;;;15.63;9.68;;;;;;;;;;5061261;28;20481;-81
2023/09/14 07:24:33;;;;;;;14.70;9.40;;;;;;;;;;5059065;28;20553;-81
2023/09/14 07:26:59;;;;;;;14.52;9.95;;;;;;;;;;5059332;28;20028;-82
2023/09/14 07:29:26;;;;;;;14.80;9.90;;;;;;;;;;5059060;28;20036;-79
2023/09/14 07:31:52;;;;;;;15.00;9.90;;;;;;;;;;5055058;28;20112;-80
2023/09/14 07:34:17;;;;;;;14.15;10.25;;;;;;;;;;5056930;28;20032;-80
2023/09/14 07:36:43;;;;;;;16.50;10.70;;;;;;;;;;5070107;28;20039;-80
2023/09/14 07:39:09;;;;;;;14.20;9.55;;;;;;;;;;5078651;28;20469;-80
2023/09/14 07:41:34;;;;;;;16.48;10.60;;;;;;;;;;5063638;28;20051;-80
2023/09/14 07:44:00;;;;;;;15.70;10.63;;;;;;;;;;5060321;28;20083;-80
2023/09/14 07:46:26;;;;;;;13.95;8.70;;;;;;;;;;5073426;28;20087;-80
2023/09/14 07:48:52;;;;;;;12.80;9.20;;;;;;;;;;5073751;28;20041;-80
2023/09/14 07:51:17;;;;;;;13.75;10.13;;;;;;;;;;5055625;28;20033;-82
2023/09/14 07:53:42;;;;;;;12.45;9.02;;;;;;;;;;5054667;28;20052;-79
2023/09/14 07:56:08;;;;;;;15.48;10.43;;;;;;;;;;5070367;28;20119;-80
2023/09/14 07:58:33;;;;;;;13.82;9.20;;;;;;;;;;5061004;28;20064;-81
2023/09/14 08:00:59;;;;;;;7.93;6.20;;;;;;;;;;5064108;28;20452;-81
2023/09/14 08:03:27;;;;;;;14.50;9.20;;;;;;;;;;5063304;28;20024;-81
2023/09/14 08:05:53;;;;;;;12.75;9.25;;;;;;;;;;5060635;28;20107;-82
2023/09/14 08:08:19;;;;;;;13.95;9.05;;;;;;;;;;5056841;28;20079;-82
2023/09/14 08:10:52;;;;;;;11.90;8.98;;;;;;;;;;5058701;28;20048;-82
2023/09/14 08:13:18;;;;;;;10.98;8.70;;;;;;;;;;5055441;28;20128;-82
2023/09/14 08:15:44;;;;;;;15.05;9.57;;;;;;;;;;5073647;28;20043;-82
2023/09/14 08:18:09;;;;;;;15.90;9.73;;;;;;;;;;5060572;28;20425;-83
2023/09/14 08:20:45;;;;;;;12.27;9.35;;;;;;;;;;5066375;28;20378;-82
2023/09/14 08:23:12;;;;;;;14.07;10.25;;;;;;;;;;5063837;28;20382;-83
2023/09/14 08:25:45;;;;;;;13.82;10.20;;;;;;;;;;5060829;28;20421;-84
2023/09/14 08:28:16;;;;;;;17.92;11.32;;;;;;;;;;5055789;28;20432;-82
2023/09/14 08:30:42;;;;;;;8.50;5.78;;;;;;;;;;5053919;28;21043;-81
2023/09/14 08:33:08;;;;;;;16.67;10.98;;;;;;;;;;5068715;28;20063;-80
2023/09/14 08:35:36;;;;;;;16.42;11.00;;;;;;;;;;5071570;28;20467;-81
2023/09/14 08:38:03;;;;;;;13.40;10.10;;;;;;;;;;5059951;28;20029;-82
2023/09/14 08:40:29;;;;;;;14.93;10.93;;;;;;;;;;5081488;28;20024;-82
2023/09/14 08:42:56;;;;;;;15.52;11.38;;;;;;;;;;5063476;28;20047;-88
2023/09/14 08:45:26;;;;;;;16.88;11.82;;;;;;;;;;5060317;28;20029;-87
2023/09/14 08:47:52;;;;;;;15.27;11.88;;;;;;;;;;5055326;28;20025;-90
2023/09/14 08:50:20;;;;;;;16.45;11.75;;;;;;;;;;5067040;28;20385;-89
2023/09/14 08:52:46;;;;;;;14.73;11.48;;;;;;;;;;5053772;28;20029;-91
2023/09/14 08:55:12;;;;;;;16.77;12.02;;;;;;;;;;5054683;28;20505;-90
2023/09/14 08:57:44;;;;;;;16.50;11.60;;;;;;;;;;5060148;28;20025;-91
2023/09/14 09:00:15;;;;;;;19.30;11.65;;;;;;;;;;5066129;28;20032;-91
2023/09/14 09:02:50;;;;;;;15.38;11.50;;;;;;;;;;5061692;28;20047;-91
2023/09/14 09:05:17;;;;;;;16.80;11.23;;;;;;;;;;5056085;28;20525;-91
2023/09/14 09:07:44;;;;;;;16.25;11.60;;;;;;;;;;5056514;28;20071;-91
2023/09/14 09:10:23;;;;;;;14.48;10.32;;;;;;;;;;5055078;28;20033;-91
2023/09/14 09:12:57;;;;;;;16.38;11.05;;;;;;;;;;5051709;28;20479;-91
2023/09/14 09:15:24;;;;;;;14.60;9.68;;;;;;;;;;5044654;28;20025;-91
2023/09/14 09:18:10;;;;;;;13.85;9.93;;;;;;;;;;5068197;28;20032;-91
2023/09/14 09:20:37;;;;;;;11.38;9.23;;;;;;;;;;5058939;28;20033;-89
2023/09/14 09:23:03;;;;;;;13.85;9.98;;;;;;;;;;5057828;28;20066;-88
2023/09/14 09:25:41;;;;;;;13.57;9.18;;;;;;;;;;5059319;28;20041;-88
2023/09/14 09:28:07;;;;;;;12.25;9.38;;;;;;;;;;5067383;28;20090;-88
2023/09/14 09:30:34;;;;;;;12.90;8.48;;;;;;;;;;5056315;28;20497;-88
2023/09/14 09:33:00;;;;;;;12.30;8.32;;;;;;;;;;5056155;28;20041;-88
2023/09/14 09:35:27;;;;;;;12.90;9.50;;;;;;;;;;5055272;28;20479;-88
2023/09/14 09:37:54;;;;;;;11.23;8.57;;;;;;;;;;5057148;28;20513;-88
2023/09/14 09:40:31;;;;;;;11.80;8.50;;;;;;;;;;5063753;28;20119;-87
2023/09/14 09:43:03;;;;;;;9.32;7.03;;;;;;;;;;5064256;28;20044;-86
2023/09/14 09:45:29;;;;;;;12.38;8.13;;;;;;;;;;5062626;28;20044;-86
2023/09/14 09:47:54;;;;;;;13.70;10.65;;;;;;;;;;5059848;28;20036;-86
2023/09/14 09:50:21;;;;;;;15.52;9.98;;;;;;;;;;5057337;28;20037;-86
2023/09/14 09:52:48;;;;;;;16.83;10.50;;;;;;;;;;5057436;28;20059;-85
2023/09/14 09:55:22;;;;;;;14.48;11.90;;;;;;;;;;5060133;28;20036;-89
2023/09/14 09:57:57;;;;;;;15.35;11.27;;;;;;;;;;5062094;28;20395;-87
2023/09/14 10:00:29;;;;;;;15.65;11.98;;;;;;;;;;5062178;28;20119;-89
2023/09/14 10:02:54;;;;;;;15.35;11.07;;;;;;;;;;5063926;28;20040;-89
2023/09/14 10:05:30;;;;;;;14.68;11.60;;;;;;;;;;5063583;28;20484;-89
2023/09/14 10:08:00;;;;;;;16.10;11.07;;;;;;;;;;5055519;28;20033;-89
2023/09/14 10:10:28;;;;;;;17.25;11.27;;;;;;;;;;5055440;28;20041;-88
2023/09/14 10:12:55;;;;;;;15.98;10.57;;;;;;;;;;5058425;28;20021;-89
2023/09/14 10:15:25;;;;;;;15.25;12.15;;;;;;;;;;5065747;28;20037;-88
2023/09/14 10:17:54;;;;;;;16.95;11.77;;;;;;;;;;5060035;28;20049;-88
2023/09/14 10:20:20;;;;;;;17.83;10.82;;;;;;;;;;5054583;28;20115;-89
2023/09/14 10:22:47;;;;;;;12.98;9.70;;;;;;;;;;5058404;28;20028;-89
2023/09/14 10:25:14;;;;;;;14.57;10.80;;;;;;;;;;5057401;28;20089;-89
2023/09/14 10:27:40;;;;;;;13.73;11.50;;;;;;;;;;5054280;28;20048;-88
2023/09/14 10:30:07;;;;;;;11.80;9.65;;;;;;;;;;5056447;28;20028;-89
2023/09/14 10:32:38;;;;;;;11.77;8.25;;;;;;;;;;5052838;28;20037;-88
2023/09/14 10:35:04;;;;;;;12.00;9.05;;;;;;;;;;5055508;28;20402;-89
2023/09/14 10:37:31;;;;;;;9.50;7.50;;;;;;;;;;5059870;28;20087;-89
2023/09/14 10:39:58;;;;;;;7.03;5.75;;;;;;;;;;5068534;28;20060;-90
2023/09/14 10:42:24;;;;;;;7.05;5.82;;;;;;;;;;5067329;28;20039;-89
2023/09/14 10:44:50;;;;;;;12.15;8.52;;;;;;;;;;5054135;28;20422;-89
2023/09/14 10:47:20;;;;;;;10.85;8.48;;;;;;;;;;5055301;28;20062;-89
2023/09/14 10:49:48;;;;;;;12.50;8.73;;;;;;;;;;5051584;28;20036;-89
2023/09/14 10:52:23;;;;;;;11.40;8.80;;;;;;;;;;5058230;28;20031;-89
2023/09/14 10:54:49;;;;;;;11.45;8.77;;;;;;;;;;5061687;28;20037;-88
2023/09/14 10:57:23;;;;;;;11.60;8.80;;;;;;;;;;5077695;28;20494;-89
2023/09/14 10:59:53;;;;;;;10.30;8.13;;;;;;;;;;5061651;28;20058;-88
2023/09/14 11:02:41;;;;;;;12.57;10.15;;;;;;;;;;5057314;28;20517;-89
2023/09/14 11:05:10;;;;;;;15.88;10.00;;;;;;;;;;5060908;28;20115;-88
2023/09/14 11:07:40;;;;;;;14.32;10.57;;;;;;;;;;5063412;28;20375;-89
2023/09/14 11:10:07;;;;;;;15.95;10.40;;;;;;;;;;5060767;28;20032;-88
2023/09/14 11:12:33;;;;;;;11.40;9.50;;;;;;;;;;5066791;28;20028;-88
2023/09/14 11:15:15;;;;;;;12.57;8.50;;;;;;;;;;5064068;28;20147;-89
2023/09/14 11:17:45;;;;;;;10.45;6.85;;;;;;;;;;5061623;28;20044;-89
2023/09/14 11:20:20;;;;;;;9.27;6.40;;;;;;;;;;5064139;28;20525;-88
2023/09/14 11:22:50;;;;;;;8.45;5.80;;;;;;;;;;5061400;28;20041;-87
2023/09/14 11:25:36;;;;;;;7.38;5.63;;;;;;;;;;5067092;28;20036;-88
2023/09/14 11:28:06;;;;;;;9.43;5.88;;;;;;;;;;5069239;28;20131;-88
2023/09/14 11:30:32;;;;;;;7.07;5.60;;;;;;;;;;5055025;28;20029;-88
2023/09/14 11:33:02;;;;;;;6.25;4.70;;;;;;;;;;5057935;28;20721;-87
2023/09/14 11:35:38;;;;;;;7.85;5.13;;;;;;;;;;5071290;28;20044;-88
2023/09/14 11:38:07;;;;;;;5.38;3.80;;;;;;;;;;5083690;28;20107;-87
2023/09/14 11:40:33;;;;;;;5.60;4.40;;;;;;;;;;5065826;28;20506;-87
2023/09/14 11:43:08;;;;;;;6.65;4.85;;;;;;;;;;5060975;28;20082;-88
2023/09/14 11:45:41;;;;;;;8.18;5.00;;;;;;;;;;5066375;28;20055;-88
2023/09/14 11:48:08;;;;;;;7.45;5.07;;;;;;;;;;5061048;28;20047;-87
2023/09/14 11:50:34;;;;;;;7.53;4.93;;;;;;;;;;5064090;28;20406;-88
2023/09/14 11:53:00;;;;;;;6.57;4.90;;;;;;;;;;5063174;28;20025;-87
2023/09/14 11:55:26;;;;;;;5.85;4.60;;;;;;;;;;5069069;28;20057;-88
2023/09/14 11:57:52;;;;;;;8.00;5.50;;;;;;;;;;5069637;28;20044;-88
2023/09/14 12:00:19;;;;;;;7.38;6.10;;;;;;;;;;5058643;28;20123;-88
2023/09/14 12:02:46;;;;;;;7.70;6.32;;;;;;;;;;5064019;28;20067;-89
2023/09/14 12:05:13;;;;;;;9.05;6.60;;;;;;;;;;5061226;28;20104;-87
2023/09/14 12:07:38;;;;;;;7.88;6.57;;;;;;;;;;5061669;28;20037;-87
2023/09/14 12:10:17;;;;;;;6.68;5.93;;;;;;;;;;5071702;28;20032;-88
2023/09/14 12:12:42;;;;;;;8.68;6.03;;;;;;;;;;5076706;28;20066;-88
2023/09/14 12:15:19;;;;;;;8.27;5.60;;;;;;;;;;5071479;28;20096;-89
2023/09/14 12:17:52;;;;;;;7.22;5.72;;;;;;;;;;5065386;28;20048;-88
2023/09/14 12:20:19;;;;;;;8.25;6.82;;;;;;;;;;5068206;28;20048;-88
2023/09/14 12:22:45;;;;;;;8.02;5.90;;;;;;;;;;5079321;28;20044;-88
2023/09/14 12:25:13;;;;;;;7.82;6.10;;;;;;;;;;5064198;28;20045;-87
2023/09/14 12:27:40;;;;;;;8.25;5.97;;;;;;;;;;5065045;28;20056;-88
2023/09/14 12:30:09;;;;;;;8.75;6.25;;;;;;;;;;5063366;28;20040;-87
2023/09/14 12:32:38;;;;;;;8.63;6.57;;;;;;;;;;5065734;28;20056;-88
2023/09/14 12:35:05;;;;;;;6.82;5.97;;;;;;;;;;5069850;28;20036;-89
2023/09/14 12:37:30;;;;;;;11.07;5.78;;;;;;;;;;5074338;28;20067;-88
2023/09/14 12:39:56;;;;;;;5.72;4.75;;;;;;;;;;5070041;28;20036;-87
2023/09/14 12:42:23;;;;;;;8.10;4.80;;;;;;;;;;5063416;28;20116;-87
2023/09/14 12:44:51;;;;;;;6.03;4.85;;;;;;;;;;5063773;28;20059;-88
2023/09/14 12:47:17;;;;;;;8.15;5.47;;;;;;;;;;5072018;28;20556;-86
2023/09/14 12:49:43;;;;;;;9.27;6.00;;;;;;;;;;5069179;28;20123;-89
2023/09/14 12:52:10;;;;;;;7.18;5.22;;;;;;;;;;5079849;28;20116;-89
2023/09/14 12:54:36;;;;;;;7.55;5.30;;;;;;;;;;5072075;28;20085;-88
2023/09/14 12:57:15;;;;;;;7.20;5.03;;;;;;;;;;5062444;28;20044;-88
2023/09/14 13:00:14;;;;;;;6.28;4.78;;;;;;;;;;5058409;28;20202;-88
2023/09/14 13:02:50;;;;;;;6.88;5.30;;;;;;;;;;5058403;28;20147;-88
2023/09/14 13:05:16;;;;;;;7.05;5.60;;;;;;;;;;5055001;28;20048;-88
2023/09/14 13:07:48;;;;;;;7.68;5.63;;;;;;;;;;5056335;28;20405;-88
2023/09/14 13:10:19;;;;;;;6.97;4.97;;;;;;;;;;5078199;28;20037;-87
2023/09/14 13:13:05;;;;;;;5.40;4.55;;;;;;;;;;5073579;28;20087;-88
2023/09/14 13:15:31;;;;;;;6.00;4.72;;;;;;;;;;5055540;28;20037;-88
2023/09/14 13:18:04;;;;;;;6.20;4.57;;;;;;;;;;5059640;28;20048;-88
2023/09/14 13:20:32;;;;;;;8.20;5.45;;;;;;;;;;5058378;28;20410;-88
2023/09/14 13:23:02;;;;;;;9.90;5.82;;;;;;;;;;5055423;28;20029;-88
2023/09/14 13:25:28;;;;;;;8.68;6.18;;;;;;;;;;5054866;28;20047;-88
2023/09/14 13:27:54;;;;;;;9.13;5.78;;;;;;;;;;5052976;28;20120;-87
2023/09/14 13:30:20;;;;;;;6.88;5.28;;;;;;;;;;5056223;28;20041;-88
2023/09/14 13:32:46;;;;;;;7.47;5.75;;;;;;;;;;5074766;28;20024;-89
2023/09/14 13:35:13;;;;;;;8.82;5.93;;;;;;;;;;5062812;28;20044;-88
2023/09/14 13:37:40;;;;;;;7.68;5.43;;;;;;;;;;5060630;28;20045;-88
2023/09/14 13:40:23;;;;;;;7.43;6.28;;;;;;;;;;5056120;28;20033;-88
2023/09/14 13:42:53;;;;;;;6.95;5.70;;;;;;;;;;5056330;28;20041;-89
2023/09/14 13:45:20;;;;;;;8.90;5.00;;;;;;;;;;5042854;28;20048;-88
2023/09/14 13:47:47;;;;;;;5.65;4.60;;;;;;;;;;5055406;28;20029;-88
2023/09/14 13:50:14;;;;;;;5.05;4.35;;;;;;;;;;5068030;28;20051;-87
2023/09/14 13:52:39;;;;;;;5.65;4.85;;;;;;;;;;5074220;28;20051;-81
2023/09/14 13:55:06;;;;;;;5.68;4.40;;;;;;;;;;5069475;28;20045;-82
2023/09/14 13:57:35;;;;;;;5.97;4.53;;;;;;;;;;5061282;28;20041;-83
2023/09/14 14:00:10;;;;;;;7.75;4.72;;;;;;;;;;5062644;28;20055;-86
2023/09/14 14:02:40;;;;;;;6.65;4.22;;;;;;;;;;5061025;28;20485;-86
2023/09/14 14:05:07;;;;;;;7.03;4.75;;;;;;;;;;5058187;28;20037;-86
2023/09/14 14:07:32;;;;;;;6.15;4.57;;;;;;;;;;5075764;28;20121;-86
2023/09/14 14:09:58;;;;;;;5.93;4.60;;;;;;;;;;5070230;28;20029;-86
2023/09/14 14:12:24;;;;;;;6.38;4.43;;;;;;;;;;5061097;28;20067;-86
2023/09/14 14:14:54;;;;;;;6.97;4.70;;;;;;;;;;5055761;28;20029;-86
2023/09/14 14:17:20;;;;;;;8.48;5.53;;;;;;;;;;5059231;28;20096;-87
2023/09/14 14:19:45;;;;;;;6.40;5.30;;;;;;;;;;5064000;28;20036;-87
2023/09/14 14:22:11;;;;;;;5.95;4.80;;;;;;;;;;5057341;28;20482;-86
2023/09/14 14:24:36;;;;;;;6.18;4.78;;;;;;;;;;5052548;28;20364;-89
2023/09/14 14:27:02;;;;;;;7.40;5.05;;;;;;;;;;5058525;28;20032;-86
2023/09/14 14:29:28;;;;;;;6.63;4.82;;;;;;;;;;5067918;28;20025;-88
2023/09/14 14:31:53;;;;;;;5.78;4.47;;;;;;;;;;5055474;28;20028;-86
2023/09/14 14:34:19;;;;;;;4.55;4.10;;;;;;;;;;5054448;28;20051;-87
2023/09/14 14:36:45;;;;;;;7.40;4.10;;;;;;;;;;5065694;28;20039;-89
2023/09/14 14:39:11;;;;;;;5.30;4.00;;;;;;;;;;5060457;28;20099;-87